Time;durP1;ratioP1;P1;durP2;ratioP2;P2;SDS_P1;SDS_P2;PMS_P1;PMS_P2;Temp;Humidity;BMP_temperature;BMP_pressure;BME280_temperature;BME280_humidity;BME280_pressure;Samples;Min_cycle;Max_cycle;Signal;HPM_P1;HPM_P2
2023/06/20 00:02:06;;;;;;;6.07;3.90;;;;;;;7.78;64.04;95724.28;6272465;28;20486;-66
2023/06/20 00:05:08;;;;;;;5.80;4.20;;;;;;;7.80;64.35;95718.94;6270614;28;20048;-67
2023/06/20 00:08:11;;;;;;;6.20;4.05;;;;;;;7.82;64.46;95719.69;6266279;28;20048;-68
2023/06/20 00:11:13;;;;;;;5.70;4.43;;;;;;;7.87;64.43;95733.28;6271278;28;20041;-66
2023/06/20 00:14:15;;;;;;;7.15;3.65;;;;;;;7.88;64.36;95727.09;6271722;28;20414;-67
2023/06/20 00:17:22;;;;;;;6.45;4.32;;;;;;;7.94;64.28;95733.66;6272268;28;20041;-67
2023/06/20 00:20:29;;;;;;;4.43;3.70;;;;;;;7.98;64.30;95730.72;6272387;28;20040;-67
2023/06/20 00:23:33;;;;;;;5.68;3.55;;;;;;;8.08;64.33;95731.69;6264274;28;20127;-67
2023/06/20 00:26:37;;;;;;;5.05;4.10;;;;;;;8.00;64.53;95734.03;6271689;28;20044;-67
2023/06/20 00:29:42;;;;;;;3.95;3.33;;;;;;;7.99;64.66;95736.78;6271515;28;20146;-66
2023/06/20 00:32:45;;;;;;;7.25;3.90;;;;;;;7.97;64.97;95736.88;6270582;28;20049;-67
2023/06/20 00:35:49;;;;;;;5.55;4.55;;;;;;;8.02;64.98;95737.41;6252957;28;20045;-66
2023/06/20 00:38:55;;;;;;;4.95;3.88;;;;;;;8.09;64.96;95733.34;6246082;28;20049;-67
2023/06/20 00:41:57;;;;;;;4.13;3.30;;;;;;;8.12;64.95;95732.31;6246746;28;20462;-67
2023/06/20 00:45:01;;;;;;;4.60;3.45;;;;;;;8.15;64.88;95736.50;6246854;28;20083;-68
2023/06/20 00:48:06;;;;;;;4.93;3.88;;;;;;;8.24;64.46;95741.06;6246278;28;20090;-66
2023/06/20 00:51:10;;;;;;;4.03;3.65;;;;;;;8.23;64.43;95740.22;6245218;28;20530;-67
2023/06/20 00:54:14;;;;;;;4.75;3.42;;;;;;;8.30;63.85;95743.25;6245285;28;20046;-66
2023/06/20 00:57:21;;;;;;;3.42;3.13;;;;;;;8.33;63.54;95751.69;6270698;28;20126;-65
2023/06/20 01:00:32;;;;;;;4.38;2.90;;;;;;;8.44;62.97;95742.25;6271065;28;20041;-67
2023/06/20 01:03:37;;;;;;;5.03;2.72;;;;;;;8.45;62.40;95729.00;6252228;28;20046;-67
2023/06/20 01:06:42;;;;;;;5.32;3.10;;;;;;;8.47;62.27;95742.84;6236792;28;20064;-67
2023/06/20 01:09:56;;;;;;;3.83;3.00;;;;;;;8.57;61.52;95736.91;6245653;28;20045;-67
2023/06/20 01:13:27;;;;;;;2.78;2.53;;;;;;;8.52;61.30;95735.47;6255420;28;20064;-68
2023/06/20 01:16:49;;;;;;;3.45;1.98;;;;;;;8.54;61.29;95730.94;6270914;28;20041;-67
2023/06/20 01:19:53;;;;;;;3.67;2.47;;;;;;;8.65;61.16;95737.19;6270254;28;20045;-66
2023/06/20 01:23:03;;;;;;;3.67;2.40;;;;;;;8.78;60.40;95735.31;6251131;28;20045;-67
2023/06/20 01:26:10;;;;;;;2.78;2.13;;;;;;;8.77;60.22;95734.47;6243512;28;21132;-66
2023/06/20 01:29:35;;;;;;;3.03;2.22;;;;;;;8.74;60.25;95733.84;6247530;28;20049;-66
2023/06/20 01:32:46;;;;;;;2.22;2.03;;;;;;;8.64;60.38;95727.66;6232312;28;20072;-67
2023/06/20 01:35:48;;;;;;;2.05;1.88;;;;;;;8.58;60.44;95722.84;6263997;28;20049;-66
2023/06/20 01:38:57;;;;;;;2.67;1.90;;;;;;;8.56;60.43;95724.75;6243653;28;20037;-68
2023/06/20 01:42:03;;;;;;;2.35;1.80;;;;;;;8.41;60.54;95732.81;6245384;28;20128;-69
2023/06/20 01:45:06;;;;;;;2.28;2.08;;;;;;;8.34;60.69;95728.94;6243993;28;20046;-67
2023/06/20 01:48:11;;;;;;;2.42;2.10;;;;;;;8.28;60.95;95718.91;6244695;28;20056;-68
2023/06/20 01:51:18;;;;;;;2.83;2.53;;;;;;;8.40;60.02;95725.06;6244023;28;20045;-67
2023/06/20 01:54:20;;;;;;;3.72;2.22;;;;;;;8.40;59.92;95731.13;6244397;28;20052;-68
2023/06/20 01:57:25;;;;;;;3.28;2.38;;;;;;;8.46;59.64;95730.69;6243334;28;20041;-67
2023/06/20 02:00:34;;;;;;;5.30;3.55;;;;;;;8.51;59.91;95728.56;6243791;28;20526;-68
2023/06/20 02:03:37;;;;;;;2.78;1.88;;;;;;;8.72;58.82;95736.59;6253561;28;20675;-66
2023/06/20 02:06:42;;;;;;;2.30;2.10;;;;;;;8.79;58.55;95736.97;6260945;28;20045;-67
2023/06/20 02:09:45;;;;;;;1.83;1.70;;;;;;;8.93;57.09;95739.38;6244093;28;20057;-67
2023/06/20 02:12:54;;;;;;;2.88;1.95;;;;;;;8.86;57.36;95742.56;6244720;28;20055;-67
2023/06/20 02:16:01;;;;;;;3.35;1.60;;;;;;;8.74;57.87;95747.78;6244457;28;20419;-69
2023/06/20 02:19:06;;;;;;;1.70;1.42;;;;;;;8.73;57.44;95743.50;6243035;28;20133;-67
2023/06/20 02:22:27;;;;;;;2.95;2.05;;;;;;;8.63;57.82;95746.94;6212233;28;20125;-68
2023/06/20 02:25:35;;;;;;;3.47;1.77;;;;;;;8.65;57.31;95737.19;6243149;28;20123;-69
2023/06/20 02:28:44;;;;;;;2.08;1.25;;;;;;;8.73;56.48;95734.81;6243718;28;20049;-69
2023/06/20 02:31:49;;;;;;;2.70;1.55;;;;;;;8.82;55.94;95731.47;6244201;28;20674;-69
2023/06/20 02:34:51;;;;;;;3.05;1.40;;;;;;;9.01;55.39;95741.41;6253358;28;20426;-68
2023/06/20 02:37:57;;;;;;;2.55;1.83;;;;;;;9.23;54.24;95745.84;6254114;28;20122;-67
2023/06/20 02:41:04;;;;;;;1.80;1.40;;;;;;;9.28;53.88;95758.59;6268884;28;20048;-66
2023/06/20 02:44:09;;;;;;;3.33;1.60;;;;;;;9.28;53.89;95748.94;6268735;28;20037;-66
2023/06/20 02:47:29;;;;;;;2.33;1.60;;;;;;;9.33;52.91;95757.28;6268158;28;20053;-67
2023/06/20 02:51:07;;;;;;;2.78;1.60;;;;;;;9.39;52.58;95743.69;6266771;28;20049;-68
2023/06/20 02:54:35;;;;;;;3.03;1.88;;;;;;;9.71;51.23;95745.59;6274239;28;20056;-67
2023/06/20 02:57:46;;;;;;;3.42;1.60;;;;;;;10.06;49.71;95749.81;6293084;28;20045;-66
2023/06/20 03:00:52;;;;;;;2.17;1.30;;;;;;;10.18;49.38;95754.06;6292876;28;20048;-68
2023/06/20 03:04:02;;;;;;;1.75;1.50;;;;;;;10.42;48.90;95755.72;6293327;28;20538;-67
2023/06/20 03:07:05;;;;;;;2.03;1.63;;;;;;;10.55;48.46;95751.91;6255675;28;20045;-67
2023/06/20 03:10:08;;;;;;;2.67;1.80;;;;;;;10.66;48.22;95752.84;6267184;28;20623;-67
2023/06/20 03:13:15;;;;;;;4.97;1.60;;;;;;;10.78;47.20;95738.66;6289781;28;20447;-67
2023/06/20 03:16:16;;;;;;;2.75;1.52;;;;;;;10.97;46.50;95749.28;6244001;28;20037;-66
2023/06/20 03:19:24;;;;;;;3.55;1.50;;;;;;;10.92;46.54;95743.56;6248587;28;20042;-66
2023/06/20 03:22:30;;;;;;;1.33;1.15;;;;;;;10.82;46.58;95752.41;6262639;28;20053;-67
2023/06/20 03:25:38;;;;;;;6.25;3.35;;;;;;;10.41;47.26;95738.25;6273045;28;20139;-67
2023/06/20 03:28:41;;;;;;;3.80;1.83;;;;;;;10.22;47.99;95744.13;6270053;28;20040;-66
2023/06/20 03:31:48;;;;;;;2.20;1.40;;;;;;;10.22;47.86;95745.00;6272470;28;20441;-66
2023/06/20 03:34:54;;;;;;;2.33;1.67;;;;;;;10.12;47.83;95730.91;6272144;28;20089;-68
2023/06/20 03:37:56;;;;;;;3.28;1.58;;;;;;;10.10;47.87;95746.78;6271605;28;20041;-68
2023/06/20 03:40:58;;;;;;;2.33;1.70;;;;;;;9.93;48.42;95746.50;6272926;28;20425;-67
2023/06/20 03:44:07;;;;;;;1.48;1.23;;;;;;;9.80;48.56;95744.84;6272086;28;20041;-67
2023/06/20 03:47:10;;;;;;;1.88;1.33;;;;;;;9.73;48.32;95743.66;6273351;28;20041;-67
2023/06/20 03:50:14;;;;;;;1.90;1.80;;;;;;;9.73;48.45;95748.91;6273027;28;20137;-66
2023/06/20 03:53:18;;;;;;;1.50;1.40;;;;;;;9.70;48.42;95741.28;6271702;28;20529;-67
2023/06/20 03:56:23;;;;;;;;;;;;;;;9.71;48.78;95755.25;6272815;28;20066;-66
2023/06/20 03:59:26;;;;;;;3.80;1.60;;;;;;;9.75;48.06;95740.91;6268736;28;20024;-66
2023/06/20 04:02:33;;;;;;;2.67;1.50;;;;;;;9.76;48.33;95738.16;6259613;28;20056;-67
2023/06/20 04:05:37;;;;;;;2.60;1.60;;;;;;;9.87;47.88;95734.69;6253633;28;20056;-67
2023/06/20 04:08:45;;;;;;;2.78;1.38;;;;;;;10.01;47.32;95741.44;6271076;28;20045;-67
2023/06/20 04:11:48;;;;;;;2.92;1.05;;;;;;;10.07;47.11;95731.28;6271249;28;20060;-67
2023/06/20 04:14:51;;;;;;;1.30;0.98;;;;;;;10.29;46.19;95730.41;6271389;28;20154;-67
2023/06/20 04:17:55;;;;;;;1.50;1.20;;;;;;;10.41;46.04;95735.59;6262099;28;20044;-67
2023/06/20 04:21:02;;;;;;;1.10;1.05;;;;;;;10.52;45.77;95738.19;6273302;28;20108;-67
2023/06/20 04:24:06;;;;;;;1.30;1.20;;;;;;;10.85;44.49;95731.09;6272632;28;20040;-67
2023/06/20 04:27:07;;;;;;;1.40;1.10;;;;;;;11.13;43.17;95730.41;6264581;28;20570;-67
2023/06/20 04:30:11;;;;;;;2.53;1.17;;;;;;;11.36;43.10;95714.44;6270070;28;20049;-66
2023/06/20 04:33:12;;;;;;;1.67;1.33;;;;;;;11.84;42.79;95721.66;6234162;28;20045;-66
2023/06/20 04:36:14;;;;;;;2.50;1.30;;;;;;;12.18;41.77;95723.97;6270865;28;20056;-66
2023/06/20 04:39:20;;;;;;;1.58;1.27;;;;;;;12.52;40.92;95727.88;6270212;28;20475;-68
2023/06/20 04:42:23;;;;;;;2.92;1.40;;;;;;;12.51;39.44;95712.16;6271262;28;20510;-66
2023/06/20 04:45:27;;;;;;;4.10;3.13;;;;;;;12.31;39.55;95738.56;6271413;28;20032;-66
2023/06/20 04:48:36;;;;;;;2.22;1.10;;;;;;;13.48;37.58;95718.09;6268020;28;20041;-67
2023/06/20 04:51:42;;;;;;;2.58;1.10;;;;;;;15.92;34.13;95727.41;6270296;28;20055;-66
2023/06/20 04:54:46;;;;;;;0.90;0.70;;;;;;;18.18;31.32;95739.09;6288990;28;20127;-67
2023/06/20 04:57:56;;;;;;;0.93;0.73;;;;;;;20.07;28.65;95730.31;6295845;28;20135;-66
2023/06/20 05:01:00;;;;;;;1.33;0.80;;;;;;;22.57;26.14;95732.72;6290610;28;20041;-67
2023/06/20 05:04:06;;;;;;;1.10;0.73;;;;;;;24.70;22.79;95719.03;6269494;28;20048;-68
2023/06/20 05:07:13;;;;;;;4.68;1.63;;;;;;;24.37;22.62;95733.44;6269125;28;20048;-68
2023/06/20 05:10:14;;;;;;;4.20;2.15;;;;;;;23.48;23.39;95718.78;6265508;28;20049;-68
2023/06/20 05:13:18;;;;;;;2.35;1.10;;;;;;;21.61;24.61;95712.06;6270788;28;20040;-68
2023/06/20 05:16:22;;;;;;;1.85;0.70;;;;;;;20.21;24.90;95709.09;6269016;28;20055;-68
2023/06/20 05:19:28;;;;;;;0.90;0.68;;;;;;;18.53;27.72;95709.41;6268873;28;20132;-67
2023/06/20 05:22:35;;;;;;;1.45;0.75;;;;;;;18.54;28.62;95708.41;6251834;28;20040;-66
2023/06/20 05:25:37;;;;;;;0.88;0.82;;;;;;;19.43;26.83;95711.34;6269457;28;20052;-66
2023/06/20 05:28:41;;;;;;;2.05;0.73;;;;;;;22.78;23.33;95719.13;6288286;28;20064;-67
2023/06/20 05:31:42;;;;;;;2.22;0.88;;;;;;;25.89;20.23;95706.50;6292830;28;20060;-67
2023/06/20 05:34:46;;;;;;;2.42;1.67;;;;;;;27.14;19.42;95726.69;6270146;28;20048;-68
2023/06/20 05:37:49;;;;;;;12.98;7.70;;;;;;;28.02;18.93;95725.81;6267247;28;20036;-67
2023/06/20 05:40:51;;;;;;;3.05;2.13;;;;;;;27.17;18.63;95716.25;6267355;28;20195;-67
2023/06/20 05:43:59;;;;;;;2.38;0.90;;;;;;;23.92;21.29;95707.38;6270728;28;20041;-68
2023/06/20 05:47:06;;;;;;;1.45;0.63;;;;;;;21.90;23.72;95697.59;6270055;28;20041;-68
2023/06/20 05:50:13;;;;;;;2.25;0.70;;;;;;;20.69;25.28;95701.41;6268685;28;20080;-65
2023/06/20 05:53:17;;;;;;;2.75;1.10;;;;;;;21.59;24.44;95707.91;6232358;28;20194;-65
2023/06/20 05:56:19;;;;;;;4.18;1.35;;;;;;;22.90;22.91;95694.38;6263942;28;20072;-66
2023/06/20 05:59:20;;;;;;;3.15;1.70;;;;;;;26.30;20.08;95708.53;6264677;28;20056;-65
2023/06/20 06:02:22;;;;;;;1.67;0.95;;;;;;;28.47;17.66;95717.06;6265702;28;20232;-65
2023/06/20 06:05:25;;;;;;;3.58;2.00;;;;;;;30.57;16.16;95715.00;6256344;28;20044;-76
2023/06/20 06:08:27;;;;;;;2.10;1.42;;;;;;;31.33;15.44;95707.63;6267179;28;20147;-64
2023/06/20 06:11:31;;;;;;;1.42;0.65;;;;;;;29.97;16.41;95703.09;6266675;28;20053;-64
2023/06/20 06:14:32;;;;;;;0.95;0.65;;;;;;;30.61;15.50;95699.84;6266401;28;20053;-64
2023/06/20 06:17:34;;;;;;;0.87;0.50;;;;;;;31.76;14.88;95694.94;6267053;28;20045;-69
2023/06/20 06:20:40;;;;;;;2.83;0.80;;;;;;;32.84;14.25;95706.38;6250574;28;20415;-69
2023/06/20 06:23:47;;;;;;;0.50;0.40;;;;;;;33.59;13.63;95704.00;6267587;28;20052;-69
2023/06/20 06:26:51;;;;;;;0.52;0.50;;;;;;;31.16;14.79;95695.25;6267985;28;20045;-67
2023/06/20 06:29:56;;;;;;;1.10;0.40;;;;;;;30.55;15.89;95690.03;6268468;28;20430;-65
2023/06/20 06:33:03;;;;;;;0.70;0.50;;;;;;;30.27;15.76;95702.72;6267696;28;20117;-67
2023/06/20 06:36:08;;;;;;;0.47;0.43;;;;;;;29.16;16.14;95689.09;6248638;28;20053;-66
2023/06/20 06:39:12;;;;;;;1.10;0.95;;;;;;;29.20;16.34;95692.97;6241847;28;20041;-68
2023/06/20 06:42:16;;;;;;;1.50;0.63;;;;;;;29.18;16.28;95705.94;6243915;28;20411;-68
2023/06/20 06:45:23;;;;;;;2.33;0.60;;;;;;;28.92;15.98;95683.78;6244168;28;20475;-68
2023/06/20 06:48:29;;;;;;;0.98;0.55;;;;;;;28.19;16.99;95680.78;6240503;28;20072;-67
2023/06/20 06:51:30;;;;;;;1.55;0.70;;;;;;;29.41;16.14;95686.78;6243004;28;20071;-65
2023/06/20 06:54:37;;;;;;;1.30;0.52;;;;;;;30.31;15.67;95686.75;6236544;28;20491;-65
2023/06/20 06:57:43;;;;;;;1.08;0.50;;;;;;;31.26;14.55;95690.75;6239264;28;20045;-66
2023/06/20 07:00:44;;;;;;;2.10;0.60;;;;;;;31.76;14.11;95678.63;6235081;28;20046;-67
2023/06/20 07:03:48;;;;;;;3.50;1.42;;;;;;;33.88;13.21;95673.41;6235754;28;20484;-65
2023/06/20 07:06:54;;;;;;;3.08;0.50;;;;;;;31.93;14.17;95670.34;6227645;28;20041;-64
2023/06/20 07:09:56;;;;;;;5.18;0.60;;;;;;;28.98;16.42;95677.41;6253226;28;20049;-67
2023/06/20 07:13:00;;;;;;;2.13;0.70;;;;;;;28.65;17.25;95662.75;6237532;28;20033;-72
2023/06/20 07:16:04;;;;;;;2.45;0.80;;;;;;;31.48;15.11;95665.38;6238480;28;20611;-71
2023/06/20 07:19:08;;;;;;;1.08;0.50;;;;;;;31.51;14.63;95670.31;6239328;28;20518;-70
2023/06/20 07:22:15;;;;;;;2.42;0.80;;;;;;;29.29;16.39;95650.84;6243614;28;20038;-70
2023/06/20 07:25:19;;;;;;;1.95;0.90;;;;;;;27.88;17.60;95662.25;6240697;28;20041;-68
2023/06/20 07:28:25;;;;;;;1.25;0.98;;;;;;;27.04;18.08;95662.47;6241866;28;20045;-71
2023/06/20 07:31:29;;;;;;;1.52;0.90;;;;;;;24.53;20.23;95679.19;6241389;28;20041;-70
2023/06/20 07:34:34;;;;;;;2.55;1.23;;;;;;;21.78;25.11;95715.25;6242023;28;20053;-69
2023/06/20 07:37:40;;;;;;;4.25;1.15;;;;;;;17.91;34.41;95720.91;6242903;28;20422;-71
2023/06/20 07:40:41;;;;;;;3.05;0.73;;;;;;;15.46;40.20;95701.19;6238185;28;20060;-71
2023/06/20 07:43:43;;;;;;;4.07;1.17;;;;;;;14.34;44.49;95704.47;6252671;28;20056;-71
2023/06/20 07:46:44;;;;;;;1.58;1.10;;;;;;;14.07;45.87;95702.75;6267750;28;20512;-71
2023/06/20 07:49:50;;;;;;;1.30;0.90;;;;;;;14.24;45.03;95701.09;6249260;28;20352;-72
2023/06/20 07:52:59;;;;;;;2.13;0.95;;;;;;;14.39;43.20;95664.34;6267968;28;20041;-71
2023/06/20 07:56:05;;;;;;;1.20;0.95;;;;;;;14.80;42.15;95686.72;6267692;28;20047;-71
2023/06/20 07:59:14;;;;;;;2.03;0.75;;;;;;;15.29;40.66;95695.97;6267413;28;20033;-72
2023/06/20 08:02:21;;;;;;;2.35;0.80;;;;;;;16.08;37.96;95714.22;6267381;28;20503;-72
2023/06/20 08:05:27;;;;;;;2.03;0.55;;;;;;;16.27;37.56;95688.34;6271380;28;20175;-71
2023/06/20 08:08:31;;;;;;;0.70;0.60;;;;;;;16.82;36.29;95711.69;6263313;28;20045;-71
2023/06/20 08:11:37;;;;;;;0.68;0.50;;;;;;;17.03;35.88;95696.03;6247209;28;20057;-72
2023/06/20 08:14:44;;;;;;;1.05;0.70;;;;;;;17.22;35.59;95686.03;6247921;28;20033;-72
2023/06/20 08:17:48;;;;;;;0.75;0.52;;;;;;;17.34;34.95;95682.03;6256620;28;20033;-71
2023/06/20 08:20:54;;;;;;;3.40;0.60;;;;;;;17.49;34.66;95690.97;6271279;28;20040;-72
2023/06/20 08:23:58;;;;;;;0.93;0.50;;;;;;;17.82;34.44;95712.16;6254432;28;20130;-71
2023/06/20 08:27:04;;;;;;;0.73;0.50;;;;;;;20.90;30.39;95688.06;6271155;28;20052;-73
2023/06/20 08:30:08;;;;;;;1.55;0.60;;;;;;;25.01;25.27;95719.03;6271788;28;20083;-72
2023/06/20 08:33:09;;;;;;;0.50;0.45;;;;;;;27.37;21.96;95705.13;6271445;28;20602;-72
2023/06/20 08:36:16;;;;;;;1.05;0.35;;;;;;;30.07;19.46;95718.72;6292380;28;20052;-73
2023/06/20 08:39:18;;;;;;;0.60;0.50;;;;;;;31.46;17.48;95702.88;6296205;28;20119;-73
2023/06/20 08:42:24;;;;;;;1.40;0.43;;;;;;;31.30;17.35;95691.84;6296153;28;20044;-73
2023/06/20 08:45:29;;;;;;;1.00;0.32;;;;;;;31.15;17.44;95689.00;6296695;28;20082;-72
2023/06/20 08:48:31;;;;;;;1.00;0.90;;;;;;;29.91;18.32;95696.78;6295852;28;20589;-72
2023/06/20 08:51:39;;;;;;;0.93;0.35;;;;;;;29.87;18.37;95679.38;6295285;28;20125;-72
2023/06/20 08:54:44;;;;;;;0.50;0.22;;;;;;;28.95;18.83;95677.88;6270948;28;20045;-73
2023/06/20 08:57:48;;;;;;;2.55;0.35;;;;;;;29.39;18.57;95677.28;6253318;28;20052;-72
2023/06/20 09:00:56;;;;;;;1.70;0.30;;;;;;;29.56;18.37;95677.28;6271104;28;20457;-73
2023/06/20 09:04:02;;;;;;;0.40;0.38;;;;;;;30.47;16.87;95682.31;6270522;28;20048;-73
2023/06/20 09:07:16;;;;;;;0.30;0.30;;;;;;;31.53;15.60;95681.72;6269690;28;20072;-74
2023/06/20 09:10:25;;;;;;;0.43;0.22;;;;;;;30.61;16.28;95683.56;6270745;28;20049;-73
2023/06/20 09:13:33;;;;;;;0.20;0.20;;;;;;;29.46;17.05;95670.63;6270765;28;20045;-72
2023/06/20 09:16:43;;;;;;;0.25;0.13;;;;;;;28.52;17.94;95652.22;6270349;28;20041;-73
2023/06/20 09:19:50;;;;;;;0.10;0.10;;;;;;;28.47;18.12;95675.66;6253028;28;20449;-71
2023/06/20 09:22:55;;;;;;;0.63;0.40;;;;;;;28.50;17.92;95670.56;6270399;28;20045;-73
2023/06/20 09:26:22;;;;;;;0.15;0.10;;;;;;;28.98;18.08;95684.69;6270875;28;20032;-73
2023/06/20 09:29:26;;;;;;;0.30;0.10;;;;;;;26.83;19.67;95680.81;6267085;28;20148;-72
2023/06/20 09:32:41;;;;;;;0.30;0.30;;;;;;;23.97;22.35;95677.16;6270735;28;20033;-72
2023/06/20 09:35:45;;;;;;;0.98;0.22;;;;;;;21.91;24.63;95669.81;6287520;28;20817;-74
2023/06/20 09:38:55;;;;;;;1.52;0.22;;;;;;;20.69;26.61;95669.34;6295142;28;20093;-72
2023/06/20 09:41:57;;;;;;;0.40;0.30;;;;;;;20.42;27.00;95659.19;6260965;28;20569;-73
2023/06/20 09:45:01;;;;;;;1.02;0.30;;;;;;;21.16;26.51;95660.69;6293513;28;20529;-74
2023/06/20 09:48:08;;;;;;;0.68;0.35;;;;;;;20.61;27.27;95667.66;6293828;28;20105;-73
2023/06/20 09:51:10;;;;;;;0.57;0.52;;;;;;;22.21;25.49;95682.91;6295007;28;20036;-73
2023/06/20 09:54:13;;;;;;;1.95;0.43;;;;;;;23.12;23.63;95677.09;6276563;28;20053;-72
2023/06/20 09:57:25;;;;;;;1.13;0.68;;;;;;;21.23;25.42;95666.91;6295161;28;20040;-73
2023/06/20 10:00:29;;;;;;;2.55;0.70;;;;;;;19.98;27.52;95672.69;6294362;28;20178;-73
2023/06/20 10:03:37;;;;;;;0.30;0.30;;;;;;;20.87;26.85;95693.78;6294466;28;20044;-72
2023/06/20 10:06:39;;;;;;;2.15;0.40;;;;;;;22.62;24.40;95664.06;6293945;28;20407;-73
2023/06/20 10:09:45;;;;;;;1.13;0.40;;;;;;;22.15;24.65;95675.66;6274889;28;20430;-74
2023/06/20 10:12:50;;;;;;;0.93;0.43;;;;;;;21.10;26.13;95677.50;6269689;28;20044;-72
2023/06/20 10:15:59;;;;;;;1.40;0.38;;;;;;;20.17;27.52;95672.09;6274063;28;20498;-72
2023/06/20 10:19:29;;;;;;;1.25;0.32;;;;;;;20.48;27.31;95673.66;6292840;28;20146;-72
2023/06/20 10:22:42;;;;;;;1.23;0.77;;;;;;;19.68;28.37;95667.41;6263671;28;20067;-73
2023/06/20 10:25:52;;;;;;;5.55;3.42;;;;;;;18.92;28.80;95673.84;6294334;28;20044;-73
2023/06/20 10:28:57;;;;;;;5.38;4.47;;;;;;;18.44;29.59;95657.22;6293783;28;20502;-72
2023/06/20 10:32:01;;;;;;;3.15;2.67;;;;;;;18.16;30.05;95674.53;6275663;28;20052;-72
2023/06/20 10:35:15;;;;;;;1.60;0.95;;;;;;;18.38;29.69;95664.91;6263815;28;20056;-73
2023/06/20 10:38:22;;;;;;;2.25;1.00;;;;;;;18.92;28.74;95658.69;6268955;28;20040;-71
2023/06/20 10:41:29;;;;;;;3.03;1.15;;;;;;;19.56;28.39;95679.53;6267703;28;20418;-72
2023/06/20 10:44:31;;;;;;;1.45;0.50;;;;;;;20.84;26.65;95662.91;6243890;28;20038;-72
2023/06/20 10:47:40;;;;;;;1.92;0.68;;;;;;;21.64;25.98;95649.28;6244052;28;20499;-72
2023/06/20 10:50:44;;;;;;;0.50;0.50;;;;;;;22.06;25.02;95666.16;6254795;28;20077;-73
2023/06/20 10:53:52;;;;;;;0.98;0.40;;;;;;;22.05;25.21;95656.44;6268337;28;20549;-72
2023/06/20 10:57:02;;;;;;;2.50;0.40;;;;;;;22.61;23.96;95653.50;6268627;28;20077;-73
2023/06/20 11:00:13;;;;;;;1.98;0.50;;;;;;;22.17;24.39;95661.06;6268239;28;20140;-72
2023/06/20 11:03:22;;;;;;;1.27;0.30;;;;;;;22.65;24.14;95662.81;6268624;28;20045;-72
2023/06/20 11:06:28;;;;;;;1.60;0.50;;;;;;;22.07;24.62;95673.13;6266396;28;20055;-73
2023/06/20 11:09:38;;;;;;;0.93;0.50;;;;;;;20.56;26.45;95673.56;6219068;28;20033;-72
2023/06/20 11:12:44;;;;;;;0.98;0.73;;;;;;;19.46;28.13;95671.78;6242622;28;20056;-71
2023/06/20 11:15:48;;;;;;;1.48;0.60;;;;;;;18.42;29.18;95673.38;6243769;28;20045;-72
2023/06/20 11:18:49;;;;;;;0.60;0.52;;;;;;;17.60;30.30;95671.13;6242672;28;20573;-72
2023/06/20 11:21:53;;;;;;;0.60;0.45;;;;;;;17.06;31.66;95679.75;6243058;28;20049;-72
2023/06/20 11:24:55;;;;;;;0.98;0.80;;;;;;;16.65;33.53;95686.09;6254818;28;20044;-73
2023/06/20 11:28:06;;;;;;;11.15;1.10;;;;;;;15.77;38.81;95705.13;6249798;28;20051;-73
2023/06/20 11:31:13;;;;;;;2.80;1.48;;;;;;;14.63;43.63;95708.72;6267110;28;20053;-72
2023/06/20 11:34:18;;;;;;;2.13;1.40;;;;;;;13.80;47.39;95711.53;6273359;28;20056;-71
2023/06/20 11:37:21;;;;;;;2.78;1.92;;;;;;;13.26;50.56;95729.00;6274755;28;20045;-72
2023/06/20 11:40:24;;;;;;;1.95;1.58;;;;;;;12.80;52.26;95717.44;6297080;28;20057;-72
2023/06/20 11:43:34;;;;;;;2.38;1.60;;;;;;;12.58;52.51;95698.28;6262564;28;20041;-72
2023/06/20 11:46:45;;;;;;;2.28;1.60;;;;;;;12.74;52.70;95708.25;6271965;28;20053;-73
2023/06/20 11:49:52;;;;;;;1.58;1.45;;;;;;;13.17;52.33;95698.16;6272385;28;20125;-72
2023/06/20 11:52:58;;;;;;;3.45;3.00;;;;;;;13.64;51.93;95701.63;6271188;28;20053;-71
2023/06/20 11:56:09;;;;;;;2.35;2.15;;;;;;;14.09;48.82;95703.41;6270809;28;20115;-72
2023/06/20 11:59:13;;;;;;;2.03;1.83;;;;;;;14.69;47.43;95700.19;6273181;28;20052;-72
2023/06/20 12:02:14;;;;;;;1.65;1.55;;;;;;;15.77;45.88;95697.19;6272268;28;20049;-71
2023/06/20 12:05:30;;;;;;;2.20;2.00;;;;;;;16.68;43.37;95696.38;6272662;28;20544;-72
2023/06/20 12:08:35;;;;;;;1.60;1.50;;;;;;;16.94;42.13;95683.75;6272402;28;20072;-71
2023/06/20 12:11:55;;;;;;;2.15;1.50;;;;;;;16.88;41.89;95681.78;6272341;28;20506;-72
2023/06/20 12:15:01;;;;;;;1.52;1.35;;;;;;;17.34;40.83;95682.03;6271983;28;20529;-72
2023/06/20 12:18:08;;;;;;;1.83;1.00;;;;;;;17.93;37.70;95682.50;6272282;28;20045;-72
2023/06/20 12:21:11;;;;;;;2.08;1.20;;;;;;;17.86;36.96;95675.38;6271706;28;20056;-72
2023/06/20 12:24:16;;;;;;;1.25;1.15;;;;;;;17.70;36.92;95665.63;6271786;28;20167;-72
2023/06/20 12:27:20;;;;;;;3.72;1.40;;;;;;;17.82;37.28;95677.56;6271216;28;20045;-72
2023/06/20 12:30:30;;;;;;;1.33;1.20;;;;;;;18.10;36.56;95675.25;6271880;28;20579;-72
2023/06/20 12:33:37;;;;;;;1.00;0.90;;;;;;;18.01;36.93;95694.09;6272341;28;20068;-72
2023/06/20 12:36:38;;;;;;;0.88;0.73;;;;;;;17.35;36.77;95678.34;6271275;28;20175;-72
2023/06/20 12:39:43;;;;;;;1.23;0.60;;;;;;;17.03;37.07;95668.63;6270952;28;20080;-73
2023/06/20 12:42:49;;;;;;;2.55;0.70;;;;;;;16.76;36.78;95672.47;6271598;28;20517;-73
2023/06/20 12:45:53;;;;;;;1.08;0.80;;;;;;;16.68;37.00;95664.50;6254231;28;20048;-73
2023/06/20 12:48:57;;;;;;;0.80;0.70;;;;;;;16.79;36.94;95661.53;6270822;28;20121;-73
2023/06/20 12:52:02;;;;;;;0.50;0.50;;;;;;;16.63;37.52;95662.34;6270998;28;20226;-73
2023/06/20 12:55:08;;;;;;;1.42;0.70;;;;;;;16.56;37.29;95659.53;6270956;28;20454;-73
2023/06/20 12:58:13;;;;;;;1.52;0.55;;;;;;;16.42;37.13;95664.66;6271039;28;20041;-72
2023/06/20 13:01:20;;;;;;;0.57;0.40;;;;;;;16.23;37.45;95657.84;6270198;28;20148;-73
2023/06/20 13:04:27;;;;;;;0.57;0.57;;;;;;;16.03;38.07;95666.09;6270676;28;20041;-72
2023/06/20 13:07:36;;;;;;;0.75;0.43;;;;;;;15.59;39.33;95668.91;6271286;28;20502;-72
2023/06/20 13:10:39;;;;;;;0.73;0.50;;;;;;;15.58;39.85;95669.09;6271135;28;20040;-72
2023/06/20 13:13:45;;;;;;;0.75;0.55;;;;;;;15.79;39.15;95664.19;6269439;28;20048;-72
2023/06/20 13:16:51;;;;;;;0.80;0.80;;;;;;;15.47;39.70;95671.00;6270598;28;20049;-73
2023/06/20 13:19:56;;;;;;;5.72;1.08;;;;;;;15.09;40.41;95677.63;6253021;28;20041;-73
2023/06/20 13:22:57;;;;;;;0.93;0.90;;;;;;;14.78;41.29;95664.84;6271303;28;20136;-72
2023/06/20 13:26:04;;;;;;;1.58;1.00;;;;;;;14.69;41.54;95671.06;6269957;28;20052;-73
2023/06/20 13:29:11;;;;;;;1.67;0.80;;;;;;;14.94;41.55;95665.94;6270468;28;20040;-72
2023/06/20 13:32:12;;;;;;;1.40;1.00;;;;;;;15.08;40.88;95681.25;6270193;28;20040;-73
2023/06/20 13:35:17;;;;;;;0.82;0.82;;;;;;;15.04;41.07;95669.31;6284021;28;20052;-72
2023/06/20 13:38:25;;;;;;;2.15;1.45;;;;;;;14.95;41.47;95672.91;6295577;28;20648;-72
2023/06/20 13:41:29;;;;;;;1.42;1.25;;;;;;;14.80;41.29;95654.06;6293075;28;20053;-72
2023/06/20 13:44:30;;;;;;;1.80;1.17;;;;;;;14.74;41.15;95676.72;6266319;28;20049;-73
2023/06/20 13:47:35;;;;;;;1.83;1.50;;;;;;;14.67;41.15;95688.91;6269179;28;20080;-72
2023/06/20 13:50:46;;;;;;;3.80;1.23;;;;;;;14.49;41.61;95693.34;6267634;28;20136;-73
2023/06/20 13:53:54;;;;;;;1.15;0.60;;;;;;;14.00;42.99;95696.38;6267484;28;20456;-73
2023/06/20 13:56:58;;;;;;;2.33;0.90;;;;;;;13.61;44.02;95701.06;6275466;28;20036;-73
2023/06/20 14:00:10;;;;;;;2.90;1.20;;;;;;;13.21;45.16;95688.94;6293540;28;20196;-73
2023/06/20 14:03:16;;;;;;;2.15;0.90;;;;;;;13.11;46.16;95691.66;6293329;28;20130;-72
2023/06/20 14:06:21;;;;;;;1.52;1.20;;;;;;;12.89;46.77;95695.44;6294569;28;20051;-72
2023/06/20 14:09:27;;;;;;;1.00;0.77;;;;;;;12.57;47.63;95690.50;6276201;28;20114;-72
2023/06/20 14:12:34;;;;;;;1.13;0.95;;;;;;;12.51;48.09;95689.28;6290255;28;20045;-73
2023/06/20 14:15:44;;;;;;;1.02;0.93;;;;;;;12.82;47.35;95691.69;6270389;28;20044;-72
2023/06/20 14:18:45;;;;;;;1.10;0.70;;;;;;;13.24;46.30;95678.09;6293733;28;20055;-73
2023/06/20 14:21:47;;;;;;;1.30;0.82;;;;;;;13.53;46.30;95693.03;6293032;28;20058;-72
2023/06/20 14:24:54;;;;;;;1.27;0.80;;;;;;;13.47;46.29;95700.59;6294064;28;20041;-74
2023/06/20 14:28:02;;;;;;;1.10;0.80;;;;;;;13.36;46.34;95681.41;6294043;28;20050;-73
2023/06/20 14:31:08;;;;;;;0.77;0.70;;;;;;;13.23;46.37;95692.28;6293656;28;20048;-73
2023/06/20 14:34:10;;;;;;;1.08;0.90;;;;;;;13.08;46.46;95683.16;6275366;28;20502;-73
2023/06/20 14:37:16;;;;;;;1.27;0.88;;;;;;;12.68;47.55;95686.88;6293804;28;20048;-74
2023/06/20 14:40:24;;;;;;;4.30;0.60;;;;;;;12.24;48.76;95689.13;6294274;28;20045;-73